sensor_id;sensor_type;location;lat;lon;timestamp;temperature;humidity
612;DHT22;293;53.888;11.464;2023-04-15T00:02:16;7.90;99.90
612;DHT22;293;53.888;11.464;2023-04-15T00:04:43;7.80;99.90
612;DHT22;293;53.888;11.464;2023-04-15T00:07:10;7.80;99.90
612;DHT22;293;53.888;11.464;2023-04-15T00:09:37;7.90;99.90
612;DHT22;293;53.888;11.464;2023-04-15T00:12:06;8.00;99.90
612;DHT22;293;53.888;11.464;2023-04-15T00:14:33;8.10;99.90
612;DHT22;293;53.888;11.464;2023-04-15T00:17:01;8.10;99.90
612;DHT22;293;53.888;11.464;2023-04-15T00:19:28;8.10;99.90
612;DHT22;293;53.888;11.464;2023-04-15T00:21:55;8.10;99.90
612;DHT22;293;53.888;11.464;2023-04-15T00:24:22;8.10;99.90
612;DHT22;293;53.888;11.464;2023-04-15T00:26:49;8.20;99.90
612;DHT22;293;53.888;11.464;2023-04-15T00:29:18;8.20;99.90
612;DHT22;293;53.888;11.464;2023-04-15T00:31:44;8.20;99.90
612;DHT22;293;53.888;11.464;2023-04-15T00:34:11;8.10;99.90
612;DHT22;293;53.888;11.464;2023-04-15T00:36:38;8.20;99.90
612;DHT22;293;53.888;11.464;2023-04-15T00:39:05;8.10;99.90
612;DHT22;293;53.888;11.464;2023-04-15T00:41:32;8.10;99.90
612;DHT22;293;53.888;11.464;2023-04-15T00:43:59;8.10;99.90
612;DHT22;293;53.888;11.464;2023-04-15T00:46:30;8.20;99.90
612;DHT22;293;53.888;11.464;2023-04-15T00:48:57;8.20;99.90
612;DHT22;293;53.888;11.464;2023-04-15T00:51:24;8.10;99.90
612;DHT22;293;53.888;11.464;2023-04-15T00:53:51;8.10;99.90
612;DHT22;293;53.888;11.464;2023-04-15T00:56:19;8.10;99.90
612;DHT22;293;53.888;11.464;2023-04-15T00:58:49;8.00;99.90
612;DHT22;293;53.888;11.464;2023-04-15T01:01:18;7.90;99.90
612;DHT22;293;53.888;11.464;2023-04-15T01:03:48;7.90;99.90
612;DHT22;293;53.888;11.464;2023-04-15T01:06:16;7.90;99.90
612;DHT22;293;53.888;11.464;2023-04-15T01:08:43;7.80;99.90
612;DHT22;293;53.888;11.464;2023-04-15T01:11:12;7.80;99.90
612;DHT22;293;53.888;11.464;2023-04-15T01:13:39;7.80;99.90
612;DHT22;293;53.888;11.464;2023-04-15T01:16:07;7.70;99.90
612;DHT22;293;53.888;11.464;2023-04-15T01:18:34;7.60;99.90
612;DHT22;293;53.888;11.464;2023-04-15T01:21:04;7.60;99.90
612;DHT22;293;53.888;11.464;2023-04-15T01:23:32;7.50;99.90
612;DHT22;293;53.888;11.464;2023-04-15T01:26:01;7.50;99.90
612;DHT22;293;53.888;11.464;2023-04-15T01:28:28;7.50;99.90
612;DHT22;293;53.888;11.464;2023-04-15T01:31:07;7.40;99.90
612;DHT22;293;53.888;11.464;2023-04-15T01:33:35;7.40;99.90
612;DHT22;293;53.888;11.464;2023-04-15T01:36:03;7.40;99.90
612;DHT22;293;53.888;11.464;2023-04-15T01:38:30;7.50;99.90
612;DHT22;293;53.888;11.464;2023-04-15T01:40:57;7.50;99.90
612;DHT22;293;53.888;11.464;2023-04-15T01:43:26;7.50;99.90
612;DHT22;293;53.888;11.464;2023-04-15T01:45:54;7.50;99.90
612;DHT22;293;53.888;11.464;2023-04-15T01:48:21;7.50;99.90
612;DHT22;293;53.888;11.464;2023-04-15T01:50:48;7.50;99.90
612;DHT22;293;53.888;11.464;2023-04-15T01:53:16;7.50;99.90
612;DHT22;293;53.888;11.464;2023-04-15T01:55:44;7.50;99.90
612;DHT22;293;53.888;11.464;2023-04-15T01:58:11;7.60;99.90
612;DHT22;293;53.888;11.464;2023-04-15T02:00:39;7.60;99.90
612;DHT22;293;53.888;11.464;2023-04-15T02:03:07;7.60;99.90
612;DHT22;293;53.888;11.464;2023-04-15T02:05:34;7.60;99.90
612;DHT22;293;53.888;11.464;2023-04-15T02:08:01;7.70;99.90
612;DHT22;293;53.888;11.464;2023-04-15T02:10:28;7.70;99.90
612;DHT22;293;53.888;11.464;2023-04-15T02:12:55;7.60;99.90
612;DHT22;293;53.888;11.464;2023-04-15T02:15:22;7.60;99.90
612;DHT22;293;53.888;11.464;2023-04-15T02:17:50;7.60;99.90
612;DHT22;293;53.888;11.464;2023-04-15T02:20:20;7.60;99.90
612;DHT22;293;53.888;11.464;2023-04-15T02:22:48;7.60;99.90
612;DHT22;293;53.888;11.464;2023-04-15T02:25:15;7.50;99.90
612;DHT22;293;53.888;11.464;2023-04-15T02:27:42;7.50;99.90
612;DHT22;293;53.888;11.464;2023-04-15T02:30:10;7.50;99.90
612;DHT22;293;53.888;11.464;2023-04-15T02:32:37;7.40;99.90
612;DHT22;293;53.888;11.464;2023-04-15T02:35:07;7.50;99.90
612;DHT22;293;53.888;11.464;2023-04-15T02:37:35;7.50;99.90
612;DHT22;293;53.888;11.464;2023-04-15T02:40:07;7.50;99.90
612;DHT22;293;53.888;11.464;2023-04-15T02:42:35;7.50;99.90
612;DHT22;293;53.888;11.464;2023-04-15T02:45:01;7.50;99.90
612;DHT22;293;53.888;11.464;2023-04-15T02:47:28;7.50;99.90
612;DHT22;293;53.888;11.464;2023-04-15T02:49:55;7.50;99.90
612;DHT22;293;53.888;11.464;2023-04-15T02:52:26;7.50;99.90
612;DHT22;293;53.888;11.464;2023-04-15T02:54:54;7.50;99.90
612;DHT22;293;53.888;11.464;2023-04-15T02:57:25;7.50;99.90
612;DHT22;293;53.888;11.464;2023-04-15T02:59:52;7.50;99.90
612;DHT22;293;53.888;11.464;2023-04-15T03:02:19;7.60;99.90
612;DHT22;293;53.888;11.464;2023-04-15T03:04:46;7.50;99.90
612;DHT22;293;53.888;11.464;2023-04-15T03:07:13;7.50;99.90
612;DHT22;293;53.888;11.464;2023-04-15T03:09:41;7.40;99.90
612;DHT22;293;53.888;11.464;2023-04-15T03:12:09;7.50;99.90
612;DHT22;293;53.888;11.464;2023-04-15T03:14:36;7.50;99.90
612;DHT22;293;53.888;11.464;2023-04-15T03:17:02;7.50;99.90
612;DHT22;293;53.888;11.464;2023-04-15T03:19:29;7.70;99.90
612;DHT22;293;53.888;11.464;2023-04-15T03:21:56;7.50;99.90
612;DHT22;293;53.888;11.464;2023-04-15T03:24:23;7.40;99.90
612;DHT22;293;53.888;11.464;2023-04-15T03:26:51;7.50;99.90
612;DHT22;293;53.888;11.464;2023-04-15T03:29:19;7.50;99.90
612;DHT22;293;53.888;11.464;2023-04-15T03:31:46;7.50;99.90
612;DHT22;293;53.888;11.464;2023-04-15T03:34:13;7.50;99.90
612;DHT22;293;53.888;11.464;2023-04-15T03:36:40;7.50;99.90
612;DHT22;293;53.888;11.464;2023-04-15T03:39:07;7.50;99.90
612;DHT22;293;53.888;11.464;2023-04-15T03:41:34;7.50;99.90
612;DHT22;293;53.888;11.464;2023-04-15T03:44:02;7.60;99.90
612;DHT22;293;53.888;11.464;2023-04-15T03:46:29;7.50;99.90
612;DHT22;293;53.888;11.464;2023-04-15T03:48:56;7.50;99.90
612;DHT22;293;53.888;11.464;2023-04-15T03:51:23;7.60;99.90
612;DHT22;293;53.888;11.464;2023-04-15T03:53:50;7.60;99.90
612;DHT22;293;53.888;11.464;2023-04-15T03:56:17;7.60;99.90
612;DHT22;293;53.888;11.464;2023-04-15T03:58:44;7.60;99.90
612;DHT22;293;53.888;11.464;2023-04-15T04:01:12;7.70;99.90
612;DHT22;293;53.888;11.464;2023-04-15T04:03:40;7.60;99.90
612;DHT22;293;53.888;11.464;2023-04-15T04:06:06;7.60;99.90
612;DHT22;293;53.888;11.464;2023-04-15T04:08:33;7.70;99.90
612;DHT22;293;53.888;11.464;2023-04-15T04:11:00;7.60;99.90
612;DHT22;293;53.888;11.464;2023-04-15T04:13:27;7.60;99.90
612;DHT22;293;53.888;11.464;2023-04-15T04:15:54;7.70;99.90
612;DHT22;293;53.888;11.464;2023-04-15T04:18:22;7.70;99.90
612;DHT22;293;53.888;11.464;2023-04-15T04:20:49;7.70;99.90
612;DHT22;293;53.888;11.464;2023-04-15T04:23:16;7.80;99.90
612;DHT22;293;53.888;11.464;2023-04-15T04:25:43;7.80;99.90
612;DHT22;293;53.888;11.464;2023-04-15T04:28:10;7.80;99.90
612;DHT22;293;53.888;11.464;2023-04-15T04:30:37;7.80;99.90
612;DHT22;293;53.888;11.464;2023-04-15T04:33:05;7.80;99.90
612;DHT22;293;53.888;11.464;2023-04-15T04:35:33;7.80;99.90
612;DHT22;293;53.888;11.464;2023-04-15T04:38:02;7.90;99.90
612;DHT22;293;53.888;11.464;2023-04-15T04:40:29;7.90;99.90
612;DHT22;293;53.888;11.464;2023-04-15T04:42:56;7.80;99.90
612;DHT22;293;53.888;11.464;2023-04-15T04:45:23;7.80;99.90
612;DHT22;293;53.888;11.464;2023-04-15T04:47:50;7.80;99.90
612;DHT22;293;53.888;11.464;2023-04-15T04:50:17;7.80;99.90
612;DHT22;293;53.888;11.464;2023-04-15T04:52:45;7.80;99.90
612;DHT22;293;53.888;11.464;2023-04-15T04:55:12;7.90;99.90
612;DHT22;293;53.888;11.464;2023-04-15T04:57:39;7.80;99.90
612;DHT22;293;53.888;11.464;2023-04-15T05:00:07;7.90;99.90
612;DHT22;293;53.888;11.464;2023-04-15T05:02:34;7.90;99.90
612;DHT22;293;53.888;11.464;2023-04-15T05:05:01;7.90;99.90
612;DHT22;293;53.888;11.464;2023-04-15T05:07:28;7.90;99.90
612;DHT22;293;53.888;11.464;2023-04-15T05:09:56;7.90;99.90
612;DHT22;293;53.888;11.464;2023-04-15T05:12:23;8.00;99.90
612;DHT22;293;53.888;11.464;2023-04-15T05:14:50;8.10;99.90
612;DHT22;293;53.888;11.464;2023-04-15T05:17:17;8.10;99.90
612;DHT22;293;53.888;11.464;2023-04-15T05:19:43;8.10;99.90
612;DHT22;293;53.888;11.464;2023-04-15T05:22:10;8.10;99.90
612;DHT22;293;53.888;11.464;2023-04-15T05:24:37;8.20;99.90
612;DHT22;293;53.888;11.464;2023-04-15T05:27:06;8.20;99.90
612;DHT22;293;53.888;11.464;2023-04-15T05:29:35;8.30;99.90
612;DHT22;293;53.888;11.464;2023-04-15T05:32:02;8.30;99.90
612;DHT22;293;53.888;11.464;2023-04-15T05:34:29;8.40;99.90
612;DHT22;293;53.888;11.464;2023-04-15T05:36:56;8.40;99.90
612;DHT22;293;53.888;11.464;2023-04-15T05:39:23;8.50;99.90
612;DHT22;293;53.888;11.464;2023-04-15T05:41:50;8.50;99.90
612;DHT22;293;53.888;11.464;2023-04-15T05:44:18;8.60;99.90
612;DHT22;293;53.888;11.464;2023-04-15T05:46:45;8.60;99.90
612;DHT22;293;53.888;11.464;2023-04-15T05:49:12;8.60;99.90
612;DHT22;293;53.888;11.464;2023-04-15T05:51:39;8.60;99.90
612;DHT22;293;53.888;11.464;2023-04-15T05:54:06;8.60;99.90
612;DHT22;293;53.888;11.464;2023-04-15T05:56:33;8.70;99.90
612;DHT22;293;53.888;11.464;2023-04-15T05:59:00;8.70;99.90
612;DHT22;293;53.888;11.464;2023-04-15T06:01:29;8.70;99.90
612;DHT22;293;53.888;11.464;2023-04-15T06:03:56;8.70;99.90
612;DHT22;293;53.888;11.464;2023-04-15T06:06:23;8.80;99.90
612;DHT22;293;53.888;11.464;2023-04-15T06:08:51;8.80;99.90
612;DHT22;293;53.888;11.464;2023-04-15T06:11:20;8.80;99.90
612;DHT22;293;53.888;11.464;2023-04-15T06:13:47;8.80;99.90
612;DHT22;293;53.888;11.464;2023-04-15T06:16:14;8.80;99.90
612;DHT22;293;53.888;11.464;2023-04-15T06:18:42;8.90;99.90
612;DHT22;293;53.888;11.464;2023-04-15T06:21:09;8.90;99.90
612;DHT22;293;53.888;11.464;2023-04-15T06:23:37;9.00;99.90
612;DHT22;293;53.888;11.464;2023-04-15T06:26:05;9.10;99.90
612;DHT22;293;53.888;11.464;2023-04-15T06:28:32;9.20;99.90
612;DHT22;293;53.888;11.464;2023-04-15T06:30:59;9.30;99.90
612;DHT22;293;53.888;11.464;2023-04-15T06:33:27;9.40;99.90
612;DHT22;293;53.888;11.464;2023-04-15T06:35:55;9.50;99.90
612;DHT22;293;53.888;11.464;2023-04-15T06:38:22;9.60;99.90
612;DHT22;293;53.888;11.464;2023-04-15T06:40:49;9.70;99.90
612;DHT22;293;53.888;11.464;2023-04-15T06:43:16;9.90;99.90
612;DHT22;293;53.888;11.464;2023-04-15T06:45:44;10.00;99.90
612;DHT22;293;53.888;11.464;2023-04-15T06:48:11;10.10;99.90
612;DHT22;293;53.888;11.464;2023-04-15T06:50:38;10.20;99.90
612;DHT22;293;53.888;11.464;2023-04-15T06:53:07;10.40;99.90
612;DHT22;293;53.888;11.464;2023-04-15T06:55:34;10.60;99.90
612;DHT22;293;53.888;11.464;2023-04-15T06:58:01;10.90;99.90
612;DHT22;293;53.888;11.464;2023-04-15T07:00:27;11.10;99.90
612;DHT22;293;53.888;11.464;2023-04-15T07:02:55;11.30;99.90
612;DHT22;293;53.888;11.464;2023-04-15T07:05:22;11.40;99.90
612;DHT22;293;53.888;11.464;2023-04-15T07:07:49;11.60;99.90
612;DHT22;293;53.888;11.464;2023-04-15T07:10:19;11.70;99.90
612;DHT22;293;53.888;11.464;2023-04-15T07:12:47;11.90;99.90
612;DHT22;293;53.888;11.464;2023-04-15T07:15:15;11.90;99.90
612;DHT22;293;53.888;11.464;2023-04-15T07:17:42;12.00;99.90
612;DHT22;293;53.888;11.464;2023-04-15T07:20:09;12.10;99.90
612;DHT22;293;53.888;11.464;2023-04-15T07:22:37;12.10;99.90
612;DHT22;293;53.888;11.464;2023-04-15T07:25:05;12.20;99.90
612;DHT22;293;53.888;11.464;2023-04-15T07:27:33;12.40;99.90
612;DHT22;293;53.888;11.464;2023-04-15T07:30:00;12.60;99.90
612;DHT22;293;53.888;11.464;2023-04-15T07:32:27;12.90;99.90
612;DHT22;293;53.888;11.464;2023-04-15T07:34:55;13.10;99.90
612;DHT22;293;53.888;11.464;2023-04-15T07:37:22;13.20;99.90
612;DHT22;293;53.888;11.464;2023-04-15T07:39:49;13.40;99.90
612;DHT22;293;53.888;11.464;2023-04-15T07:42:16;13.40;99.90
612;DHT22;293;53.888;11.464;2023-04-15T07:44:44;13.50;99.90
612;DHT22;293;53.888;11.464;2023-04-15T07:47:11;13.40;99.90
612;DHT22;293;53.888;11.464;2023-04-15T07:49:38;13.30;99.90
612;DHT22;293;53.888;11.464;2023-04-15T07:52:05;13.30;99.90
612;DHT22;293;53.888;11.464;2023-04-15T07:54:33;13.20;99.90
612;DHT22;293;53.888;11.464;2023-04-15T07:57:00;13.30;99.90
612;DHT22;293;53.888;11.464;2023-04-15T07:59:28;13.30;99.90
612;DHT22;293;53.888;11.464;2023-04-15T08:02:06;13.40;99.90
612;DHT22;293;53.888;11.464;2023-04-15T08:04:39;13.40;99.90
612;DHT22;293;53.888;11.464;2023-04-15T08:07:05;13.50;99.90
612;DHT22;293;53.888;11.464;2023-04-15T08:09:32;13.60;99.90
612;DHT22;293;53.888;11.464;2023-04-15T08:12:00;13.70;99.90
612;DHT22;293;53.888;11.464;2023-04-15T08:14:27;13.70;99.90
612;DHT22;293;53.888;11.464;2023-04-15T08:16:54;13.80;99.90
612;DHT22;293;53.888;11.464;2023-04-15T08:19:23;13.70;99.90
612;DHT22;293;53.888;11.464;2023-04-15T08:21:50;13.80;99.90
612;DHT22;293;53.888;11.464;2023-04-15T08:24:17;13.80;99.90
612;DHT22;293;53.888;11.464;2023-04-15T08:26:44;13.90;99.90
612;DHT22;293;53.888;11.464;2023-04-15T08:29:11;13.90;99.90
612;DHT22;293;53.888;11.464;2023-04-15T08:31:38;13.90;99.90
612;DHT22;293;53.888;11.464;2023-04-15T08:34:05;13.80;99.90
612;DHT22;293;53.888;11.464;2023-04-15T08:36:34;13.80;99.90
612;DHT22;293;53.888;11.464;2023-04-15T08:39:01;13.90;99.90
612;DHT22;293;53.888;11.464;2023-04-15T08:41:33;13.90;99.90
612;DHT22;293;53.888;11.464;2023-04-15T08:44:04;13.90;99.90
612;DHT22;293;53.888;11.464;2023-04-15T08:46:32;14.00;99.90
612;DHT22;293;53.888;11.464;2023-04-15T08:49:00;14.80;99.90
612;DHT22;293;53.888;11.464;2023-04-15T08:51:29;14.10;99.90
612;DHT22;293;53.888;11.464;2023-04-15T08:53:59;14.20;99.90
612;DHT22;293;53.888;11.464;2023-04-15T08:56:27;14.30;99.90
612;DHT22;293;53.888;11.464;2023-04-15T08:58:57;14.40;99.90
612;DHT22;293;53.888;11.464;2023-04-15T09:01:25;14.50;99.90
612;DHT22;293;53.888;11.464;2023-04-15T09:03:52;14.50;99.90
612;DHT22;293;53.888;11.464;2023-04-15T09:06:20;14.60;99.90
612;DHT22;293;53.888;11.464;2023-04-15T09:08:47;14.70;99.90
612;DHT22;293;53.888;11.464;2023-04-15T09:11:16;14.80;99.90
612;DHT22;293;53.888;11.464;2023-04-15T09:13:44;14.90;99.90
612;DHT22;293;53.888;11.464;2023-04-15T09:16:12;14.90;99.90
612;DHT22;293;53.888;11.464;2023-04-15T09:18:39;14.70;99.90
612;DHT22;293;53.888;11.464;2023-04-15T09:21:08;14.70;99.90
612;DHT22;293;53.888;11.464;2023-04-15T09:23:36;14.70;99.90
612;DHT22;293;53.888;11.464;2023-04-15T09:26:04;14.80;99.90
612;DHT22;293;53.888;11.464;2023-04-15T09:28:40;14.70;99.90
612;DHT22;293;53.888;11.464;2023-04-15T09:31:07;14.70;99.90
612;DHT22;293;53.888;11.464;2023-04-15T09:33:35;14.60;99.90
612;DHT22;293;53.888;11.464;2023-04-15T09:36:19;14.50;99.90
612;DHT22;293;53.888;11.464;2023-04-15T09:38:54;14.40;99.90
612;DHT22;293;53.888;11.464;2023-04-15T09:41:21;14.40;99.90
612;DHT22;293;53.888;11.464;2023-04-15T09:43:50;14.50;99.90
612;DHT22;293;53.888;11.464;2023-04-15T09:46:17;14.30;99.90
612;DHT22;293;53.888;11.464;2023-04-15T09:48:44;14.20;99.90
612;DHT22;293;53.888;11.464;2023-04-15T09:51:11;14.30;99.90
612;DHT22;293;53.888;11.464;2023-04-15T09:53:38;14.50;99.90
612;DHT22;293;53.888;11.464;2023-04-15T09:56:06;14.70;99.90
612;DHT22;293;53.888;11.464;2023-04-15T09:58:35;14.80;99.90
612;DHT22;293;53.888;11.464;2023-04-15T10:01:05;14.70;99.90
612;DHT22;293;53.888;11.464;2023-04-15T10:03:34;14.80;99.90
612;DHT22;293;53.888;11.464;2023-04-15T10:06:02;14.70;99.90
612;DHT22;293;53.888;11.464;2023-04-15T10:08:31;14.70;99.90
612;DHT22;293;53.888;11.464;2023-04-15T10:11:01;14.80;99.90
612;DHT22;293;53.888;11.464;2023-04-15T10:13:30;14.80;99.90
612;DHT22;293;53.888;11.464;2023-04-15T10:16:03;14.80;99.90
612;DHT22;293;53.888;11.464;2023-04-15T10:18:34;14.80;99.90
612;DHT22;293;53.888;11.464;2023-04-15T10:21:04;14.70;99.90
612;DHT22;293;53.888;11.464;2023-04-15T10:23:32;14.80;99.90
612;DHT22;293;53.888;11.464;2023-04-15T10:26:00;14.90;99.90
612;DHT22;293;53.888;11.464;2023-04-15T10:28:27;14.90;99.90
612;DHT22;293;53.888;11.464;2023-04-15T10:30:55;15.00;99.90
612;DHT22;293;53.888;11.464;2023-04-15T10:33:23;14.90;99.90
612;DHT22;293;53.888;11.464;2023-04-15T10:35:53;14.80;99.90
612;DHT22;293;53.888;11.464;2023-04-15T10:38:34;14.60;99.90
612;DHT22;293;53.888;11.464;2023-04-15T10:41:13;14.50;99.90
612;DHT22;293;53.888;11.464;2023-04-15T10:43:45;14.40;99.90
612;DHT22;293;53.888;11.464;2023-04-15T10:46:15;14.30;99.90
612;DHT22;293;53.888;11.464;2023-04-15T10:48:47;14.30;99.90
612;DHT22;293;53.888;11.464;2023-04-15T10:51:16;14.30;99.90
612;DHT22;293;53.888;11.464;2023-04-15T10:53:55;14.30;99.90
612;DHT22;293;53.888;11.464;2023-04-15T10:56:22;14.30;99.90
612;DHT22;293;53.888;11.464;2023-04-15T10:58:49;14.50;99.90
612;DHT22;293;53.888;11.464;2023-04-15T11:01:18;14.60;99.90
612;DHT22;293;53.888;11.464;2023-04-15T11:03:47;14.70;99.90
612;DHT22;293;53.888;11.464;2023-04-15T11:06:17;14.70;99.90
612;DHT22;293;53.888;11.464;2023-04-15T11:08:55;14.60;99.90
612;DHT22;293;53.888;11.464;2023-04-15T11:14:05;14.50;99.90
612;DHT22;293;53.888;11.464;2023-04-15T11:16:41;14.40;99.90
612;DHT22;293;53.888;11.464;2023-04-15T11:19:09;14.50;99.90
612;DHT22;293;53.888;11.464;2023-04-15T11:21:37;14.50;99.90
612;DHT22;293;53.888;11.464;2023-04-15T11:24:04;14.60;99.90
612;DHT22;293;53.888;11.464;2023-04-15T11:26:31;14.60;99.90
612;DHT22;293;53.888;11.464;2023-04-15T11:28:58;14.60;99.90
612;DHT22;293;53.888;11.464;2023-04-15T11:31:27;14.70;99.90
612;DHT22;293;53.888;11.464;2023-04-15T11:33:55;14.60;99.90
612;DHT22;293;53.888;11.464;2023-04-15T11:36:24;14.50;99.90
612;DHT22;293;53.888;11.464;2023-04-15T11:38:54;14.60;99.90
612;DHT22;293;53.888;11.464;2023-04-15T11:41:22;14.70;99.90
612;DHT22;293;53.888;11.464;2023-04-15T11:43:49;14.80;99.90
612;DHT22;293;53.888;11.464;2023-04-15T11:46:16;14.90;99.90
612;DHT22;293;53.888;11.464;2023-04-15T11:48:44;15.00;99.90
612;DHT22;293;53.888;11.464;2023-04-15T11:51:12;15.00;99.90
612;DHT22;293;53.888;11.464;2023-04-15T11:53:41;15.10;99.90
612;DHT22;293;53.888;11.464;2023-04-15T11:56:15;15.20;99.90
612;DHT22;293;53.888;11.464;2023-04-15T11:58:42;15.30;99.90
612;DHT22;293;53.888;11.464;2023-04-15T12:01:11;15.40;99.90
612;DHT22;293;53.888;11.464;2023-04-15T12:03:39;15.40;99.90
612;DHT22;293;53.888;11.464;2023-04-15T12:06:15;15.30;99.90
612;DHT22;293;53.888;11.464;2023-04-15T12:08:50;15.10;99.90
612;DHT22;293;53.888;11.464;2023-04-15T12:11:20;15.10;99.90
612;DHT22;293;53.888;11.464;2023-04-15T12:13:48;15.10;99.90
612;DHT22;293;53.888;11.464;2023-04-15T12:16:16;15.10;99.90
612;DHT22;293;53.888;11.464;2023-04-15T12:18:45;15.00;99.90
612;DHT22;293;53.888;11.464;2023-04-15T12:21:12;15.00;99.90
612;DHT22;293;53.888;11.464;2023-04-15T12:23:47;15.00;99.90
612;DHT22;293;53.888;11.464;2023-04-15T12:26:14;14.80;99.90
612;DHT22;293;53.888;11.464;2023-04-15T12:28:43;14.90;99.90
612;DHT22;293;53.888;11.464;2023-04-15T12:31:10;15.00;99.90
612;DHT22;293;53.888;11.464;2023-04-15T12:33:38;15.00;99.90
612;DHT22;293;53.888;11.464;2023-04-15T12:36:05;14.90;99.90
612;DHT22;293;53.888;11.464;2023-04-15T12:38:32;15.00;99.90
612;DHT22;293;53.888;11.464;2023-04-15T12:40:59;15.10;99.90
612;DHT22;293;53.888;11.464;2023-04-15T12:43:26;15.00;99.90
612;DHT22;293;53.888;11.464;2023-04-15T12:45:55;15.00;99.90
612;DHT22;293;53.888;11.464;2023-04-15T12:48:22;15.00;99.90
612;DHT22;293;53.888;11.464;2023-04-15T12:50:49;15.00;99.90
612;DHT22;293;53.888;11.464;2023-04-15T12:53:16;15.10;99.90
612;DHT22;293;53.888;11.464;2023-04-15T12:55:43;15.20;99.90
612;DHT22;293;53.888;11.464;2023-04-15T12:58:09;15.20;99.90
612;DHT22;293;53.888;11.464;2023-04-15T13:00:37;15.30;99.90
612;DHT22;293;53.888;11.464;2023-04-15T13:03:05;15.40;99.90
612;DHT22;293;53.888;11.464;2023-04-15T13:05:32;15.30;99.90
612;DHT22;293;53.888;11.464;2023-04-15T13:07:59;15.30;99.90
612;DHT22;293;53.888;11.464;2023-04-15T13:10:26;15.40;99.90
612;DHT22;293;53.888;11.464;2023-04-15T13:12:53;15.30;99.90
612;DHT22;293;53.888;11.464;2023-04-15T13:15:21;15.20;99.90
612;DHT22;293;53.888;11.464;2023-04-15T13:17:48;15.20;99.90
612;DHT22;293;53.888;11.464;2023-04-15T13:20:17;15.20;99.90
612;DHT22;293;53.888;11.464;2023-04-15T13:22:43;15.40;99.90
612;DHT22;293;53.888;11.464;2023-04-15T13:25:10;15.40;99.90
612;DHT22;293;53.888;11.464;2023-04-15T13:27:38;15.50;99.90
612;DHT22;293;53.888;11.464;2023-04-15T13:30:06;15.40;99.90
612;DHT22;293;53.888;11.464;2023-04-15T13:32:34;15.40;99.90
612;DHT22;293;53.888;11.464;2023-04-15T13:35:02;15.30;99.90
612;DHT22;293;53.888;11.464;2023-04-15T13:37:31;15.30;99.90
612;DHT22;293;53.888;11.464;2023-04-15T13:39:58;15.50;99.90
612;DHT22;293;53.888;11.464;2023-04-15T13:42:25;15.50;99.90
612;DHT22;293;53.888;11.464;2023-04-15T13:44:52;15.60;99.90
612;DHT22;293;53.888;11.464;2023-04-15T13:47:19;15.50;99.90
612;DHT22;293;53.888;11.464;2023-04-15T13:49:46;15.50;99.90
612;DHT22;293;53.888;11.464;2023-04-15T13:52:13;15.50;99.90
612;DHT22;293;53.888;11.464;2023-04-15T13:54:42;15.50;99.90
612;DHT22;293;53.888;11.464;2023-04-15T13:57:09;15.60;99.90
612;DHT22;293;53.888;11.464;2023-04-15T13:59:36;15.60;99.90
612;DHT22;293;53.888;11.464;2023-04-15T14:02:03;15.50;99.90
612;DHT22;293;53.888;11.464;2023-04-15T14:04:30;15.50;99.90
612;DHT22;293;53.888;11.464;2023-04-15T14:06:57;15.50;99.90
612;DHT22;293;53.888;11.464;2023-04-15T14:09:24;15.50;99.90
612;DHT22;293;53.888;11.464;2023-04-15T14:11:52;15.50;99.90
612;DHT22;293;53.888;11.464;2023-04-15T14:14:19;15.40;99.90
612;DHT22;293;53.888;11.464;2023-04-15T14:16:46;15.30;99.90
612;DHT22;293;53.888;11.464;2023-04-15T14:19:13;15.10;99.90
612;DHT22;293;53.888;11.464;2023-04-15T14:21:40;14.90;99.90
612;DHT22;293;53.888;11.464;2023-04-15T14:24:07;14.70;99.90
612;DHT22;293;53.888;11.464;2023-04-15T14:26:34;14.50;99.90
612;DHT22;293;53.888;11.464;2023-04-15T14:29:03;14.50;99.90
612;DHT22;293;53.888;11.464;2023-04-15T14:31:29;14.50;99.90
612;DHT22;293;53.888;11.464;2023-04-15T14:33:56;14.60;99.90
612;DHT22;293;53.888;11.464;2023-04-15T14:36:23;14.60;99.90
612;DHT22;293;53.888;11.464;2023-04-15T14:38:50;14.70;99.90
612;DHT22;293;53.888;11.464;2023-04-15T14:41:17;14.70;99.90
612;DHT22;293;53.888;11.464;2023-04-15T14:43:44;14.70;99.90
612;DHT22;293;53.888;11.464;2023-04-15T14:46:12;14.60;99.90
612;DHT22;293;53.888;11.464;2023-04-15T14:48:39;14.60;99.90
612;DHT22;293;53.888;11.464;2023-04-15T14:51:06;14.40;99.90
612;DHT22;293;53.888;11.464;2023-04-15T14:53:33;14.40;99.90
612;DHT22;293;53.888;11.464;2023-04-15T14:56:00;14.30;99.90
612;DHT22;293;53.888;11.464;2023-04-15T14:58:27;14.20;99.90
612;DHT22;293;53.888;11.464;2023-04-15T15:00:54;13.90;99.90
612;DHT22;293;53.888;11.464;2023-04-15T15:03:23;13.80;99.90
612;DHT22;293;53.888;11.464;2023-04-15T15:05:50;13.70;99.90
612;DHT22;293;53.888;11.464;2023-04-15T15:08:16;13.60;99.90
612;DHT22;293;53.888;11.464;2023-04-15T15:10:43;13.40;99.90
612;DHT22;293;53.888;11.464;2023-04-15T15:13:10;13.20;99.90
612;DHT22;293;53.888;11.464;2023-04-15T15:15:38;13.00;99.90
612;DHT22;293;53.888;11.464;2023-04-15T15:18:05;12.90;99.90
612;DHT22;293;53.888;11.464;2023-04-15T15:20:33;12.90;99.90
612;DHT22;293;53.888;11.464;2023-04-15T15:23:00;12.90;99.90
612;DHT22;293;53.888;11.464;2023-04-15T15:25:27;12.80;99.90
612;DHT22;293;53.888;11.464;2023-04-15T15:27:54;12.70;99.90
612;DHT22;293;53.888;11.464;2023-04-15T15:30:21;12.60;99.90
612;DHT22;293;53.888;11.464;2023-04-15T15:32:48;12.50;99.90
612;DHT22;293;53.888;11.464;2023-04-15T15:35:15;12.40;99.90
612;DHT22;293;53.888;11.464;2023-04-15T15:37:45;12.20;99.90
612;DHT22;293;53.888;11.464;2023-04-15T15:40:12;12.00;99.90
612;DHT22;293;53.888;11.464;2023-04-15T15:42:39;11.90;99.90
612;DHT22;293;53.888;11.464;2023-04-15T15:45:07;11.80;99.90
612;DHT22;293;53.888;11.464;2023-04-15T15:47:34;11.80;99.90
612;DHT22;293;53.888;11.464;2023-04-15T15:50:01;11.80;99.90
612;DHT22;293;53.888;11.464;2023-04-15T15:52:28;11.70;99.90
612;DHT22;293;53.888;11.464;2023-04-15T15:54:57;11.70;99.90
612;DHT22;293;53.888;11.464;2023-04-15T15:57:24;11.70;99.90
612;DHT22;293;53.888;11.464;2023-04-15T15:59:51;11.70;99.90
612;DHT22;293;53.888;11.464;2023-04-15T16:02:17;11.70;99.90
612;DHT22;293;53.888;11.464;2023-04-15T16:04:45;11.70;99.90
612;DHT22;293;53.888;11.464;2023-04-15T16:07:12;11.60;99.90
612;DHT22;293;53.888;11.464;2023-04-15T16:09:40;11.50;99.90
612;DHT22;293;53.888;11.464;2023-04-15T16:12:08;11.50;99.90
612;DHT22;293;53.888;11.464;2023-04-15T16:14:35;11.60;99.90
612;DHT22;293;53.888;11.464;2023-04-15T16:17:02;11.60;99.90
612;DHT22;293;53.888;11.464;2023-04-15T16:19:32;11.60;99.90
612;DHT22;293;53.888;11.464;2023-04-15T16:21:59;11.50;99.90
612;DHT22;293;53.888;11.464;2023-04-15T16:24:27;11.40;99.90
612;DHT22;293;53.888;11.464;2023-04-15T16:26:55;11.40;99.90
612;DHT22;293;53.888;11.464;2023-04-15T16:29:25;11.30;99.90
612;DHT22;293;53.888;11.464;2023-04-15T16:31:53;11.30;99.90